sensor_id;sensor_type;location;lat;lon;timestamp;pressure;altitude;pressure_sealevel;temperature;humidity
49473;BME280;67434;50.956;6.918;2023-04-03T00:00:01;102398.88;;;2.95;69.98
49473;BME280;67434;50.956;6.918;2023-04-03T00:02:47;102398.72;;;2.96;70.22
49473;BME280;67434;50.956;6.918;2023-04-03T00:05:33;102396.72;;;2.82;70.48
49473;BME280;67434;50.956;6.918;2023-04-03T00:08:19;102394.81;;;2.58;72.07
49473;BME280;67434;50.956;6.918;2023-04-03T00:11:05;102401.63;;;2.44;71.87
49473;BME280;67434;50.956;6.918;2023-04-03T00:13:51;102403.47;;;2.44;72.39
49473;BME280;67434;50.956;6.918;2023-04-03T00:16:37;102397.66;;;2.48;72.56
49473;BME280;67434;50.956;6.918;2023-04-03T00:19:22;102397.81;;;2.55;72.27
49473;BME280;67434;50.956;6.918;2023-04-03T00:22:08;102394.31;;;2.55;72.41
49473;BME280;67434;50.956;6.918;2023-04-03T00:24:54;102397.31;;;2.60;72.08
49473;BME280;67434;50.956;6.918;2023-04-03T00:27:40;102401.63;;;2.36;72.77
49473;BME280;67434;50.956;6.918;2023-04-03T00:30:26;102401.03;;;2.16;73.78
49473;BME280;67434;50.956;6.918;2023-04-03T00:33:13;102400.88;;;2.18;74.18
49473;BME280;67434;50.956;6.918;2023-04-03T00:35:59;102399.88;;;2.19;73.88
49473;BME280;67434;50.956;6.918;2023-04-03T00:38:44;102401.34;;;2.13;74.09
49473;BME280;67434;50.956;6.918;2023-04-03T00:41:31;102399.81;;;2.03;74.62
49473;BME280;67434;50.956;6.918;2023-04-03T00:44:22;102397.13;;;1.95;74.92
49473;BME280;67434;50.956;6.918;2023-04-03T00:47:13;102403.38;;;1.85;75.40
49473;BME280;67434;50.956;6.918;2023-04-03T00:50:03;102403.50;;;1.76;75.55
49473;BME280;67434;50.956;6.918;2023-04-03T00:52:49;102397.72;;;1.54;76.54
49473;BME280;67434;50.956;6.918;2023-04-03T00:55:37;102394.53;;;1.51;76.71
49473;BME280;67434;50.956;6.918;2023-04-03T00:58:31;102393.78;;;1.67;76.04
49473;BME280;67434;50.956;6.918;2023-04-03T01:01:22;102389.63;;;1.64;75.36
49473;BME280;67434;50.956;6.918;2023-04-03T01:07:31;102389.72;;;1.54;75.86
49473;BME280;67434;50.956;6.918;2023-04-03T01:10:19;102388.22;;;1.52;75.90
49473;BME280;67434;50.956;6.918;2023-04-03T01:13:30;102391.13;;;1.41;76.63
49473;BME280;67434;50.956;6.918;2023-04-03T01:16:16;102394.59;;;1.59;76.08
49473;BME280;67434;50.956;6.918;2023-04-03T01:19:03;102386.84;;;1.48;76.42
49473;BME280;67434;50.956;6.918;2023-04-03T01:22:02;102384.47;;;1.45;76.74
49473;BME280;67434;50.956;6.918;2023-04-03T01:24:50;102390.41;;;1.56;76.17
49473;BME280;67434;50.956;6.918;2023-04-03T01:27:36;102385.31;;;1.45;76.49
49473;BME280;67434;50.956;6.918;2023-04-03T01:30:23;102382.97;;;1.42;76.71
49473;BME280;67434;50.956;6.918;2023-04-03T01:33:11;102387.00;;;1.46;75.95
49473;BME280;67434;50.956;6.918;2023-04-03T01:35:57;102385.31;;;1.45;75.77
49473;BME280;67434;50.956;6.918;2023-04-03T01:38:43;102389.66;;;1.46;75.52
49473;BME280;67434;50.956;6.918;2023-04-03T01:41:28;102399.75;;;1.61;74.83
49473;BME280;67434;50.956;6.918;2023-04-03T01:44:15;102385.84;;;1.75;73.41
49473;BME280;67434;50.956;6.918;2023-04-03T01:47:01;102393.03;;;1.82;72.84
49473;BME280;67434;50.956;6.918;2023-04-03T01:49:46;102396.03;;;1.79;73.03
49473;BME280;67434;50.956;6.918;2023-04-03T01:52:32;102393.16;;;1.73;72.90
49473;BME280;67434;50.956;6.918;2023-04-03T01:55:17;102389.19;;;1.77;73.08
49473;BME280;67434;50.956;6.918;2023-04-03T01:58:03;102396.31;;;1.68;73.03
49473;BME280;67434;50.956;6.918;2023-04-03T02:00:48;102396.09;;;1.62;73.87
49473;BME280;67434;50.956;6.918;2023-04-03T02:03:34;102390.97;;;1.42;74.75
49473;BME280;67434;50.956;6.918;2023-04-03T02:06:20;102399.53;;;1.28;75.23
49473;BME280;67434;50.956;6.918;2023-04-03T02:09:05;102397.59;;;1.12;75.85
49473;BME280;67434;50.956;6.918;2023-04-03T02:11:52;102400.53;;;1.09;76.76
49473;BME280;67434;50.956;6.918;2023-04-03T02:14:38;102401.25;;;0.93;76.97
49473;BME280;67434;50.956;6.918;2023-04-03T02:17:23;102395.53;;;0.88;77.42
49473;BME280;67434;50.956;6.918;2023-04-03T02:20:10;102396.00;;;0.84;77.56
49473;BME280;67434;50.956;6.918;2023-04-03T02:22:55;102397.50;;;0.86;77.57
49473;BME280;67434;50.956;6.918;2023-04-03T02:25:41;102396.38;;;0.89;77.56
49473;BME280;67434;50.956;6.918;2023-04-03T02:28:27;102401.31;;;0.84;77.62
49473;BME280;67434;50.956;6.918;2023-04-03T02:31:12;102400.78;;;0.80;77.74
49473;BME280;67434;50.956;6.918;2023-04-03T02:33:58;102405.75;;;0.75;78.46
49473;BME280;67434;50.956;6.918;2023-04-03T02:36:43;102400.31;;;0.67;78.46
49473;BME280;67434;50.956;6.918;2023-04-03T02:39:29;102405.09;;;0.63;78.48
49473;BME280;67434;50.956;6.918;2023-04-03T02:42:15;102408.66;;;0.54;79.21
49473;BME280;67434;50.956;6.918;2023-04-03T02:45:01;102405.78;;;0.66;78.75
49473;BME280;67434;50.956;6.918;2023-04-03T02:47:46;102400.47;;;0.66;78.68
49473;BME280;67434;50.956;6.918;2023-04-03T02:50:33;102407.75;;;0.63;78.61
49473;BME280;67434;50.956;6.918;2023-04-03T02:53:19;102411.59;;;0.79;78.21
49473;BME280;67434;50.956;6.918;2023-04-03T02:56:05;102410.81;;;0.86;77.83
49473;BME280;67434;50.956;6.918;2023-04-03T02:58:50;102410.75;;;0.78;78.20
49473;BME280;67434;50.956;6.918;2023-04-03T03:01:36;102411.47;;;0.71;78.62
49473;BME280;67434;50.956;6.918;2023-04-03T03:04:22;102410.81;;;0.69;78.41
49473;BME280;67434;50.956;6.918;2023-04-03T03:07:07;102412.63;;;0.68;78.49
49473;BME280;67434;50.956;6.918;2023-04-03T03:09:53;102423.88;;;0.62;78.53
49473;BME280;67434;50.956;6.918;2023-04-03T03:12:39;102419.91;;;0.48;79.26
49473;BME280;67434;50.956;6.918;2023-04-03T03:15:25;102419.53;;;0.43;79.51
49473;BME280;67434;50.956;6.918;2023-04-03T03:18:11;102412.53;;;0.42;79.57
49473;BME280;67434;50.956;6.918;2023-04-03T03:21:00;102418.38;;;0.46;79.46
49473;BME280;67434;50.956;6.918;2023-04-03T03:23:46;102413.06;;;0.46;79.33
49473;BME280;67434;50.956;6.918;2023-04-03T03:26:32;102407.06;;;0.61;78.53
49473;BME280;67434;50.956;6.918;2023-04-03T03:29:17;102416.81;;;0.71;77.32
49473;BME280;67434;50.956;6.918;2023-04-03T03:32:03;102414.00;;;0.72;77.18
49473;BME280;67434;50.956;6.918;2023-04-03T03:34:49;102413.03;;;0.91;76.25
49473;BME280;67434;50.956;6.918;2023-04-03T03:37:35;102412.72;;;0.94;75.64
49473;BME280;67434;50.956;6.918;2023-04-03T03:40:20;102411.56;;;0.97;75.22
49473;BME280;67434;50.956;6.918;2023-04-03T03:43:06;102405.41;;;0.96;75.40
49473;BME280;67434;50.956;6.918;2023-04-03T03:45:53;102404.28;;;0.99;74.91
49473;BME280;67434;50.956;6.918;2023-04-03T03:48:38;102407.84;;;1.07;74.30
49473;BME280;67434;50.956;6.918;2023-04-03T03:51:26;102416.97;;;1.05;74.72
49473;BME280;67434;50.956;6.918;2023-04-03T03:54:12;102411.44;;;0.98;75.17
49473;BME280;67434;50.956;6.918;2023-04-03T03:56:58;102408.22;;;0.94;75.30
49473;BME280;67434;50.956;6.918;2023-04-03T03:59:44;102404.66;;;0.86;75.33
49473;BME280;67434;50.956;6.918;2023-04-03T04:02:30;102415.63;;;0.83;75.66
49473;BME280;67434;50.956;6.918;2023-04-03T04:05:15;102414.41;;;0.95;75.24
49473;BME280;67434;50.956;6.918;2023-04-03T04:08:01;102406.66;;;0.84;75.59
49473;BME280;67434;50.956;6.918;2023-04-03T04:10:47;102407.41;;;0.76;76.16
49473;BME280;67434;50.956;6.918;2023-04-03T04:13:32;102417.22;;;0.93;75.56
49473;BME280;67434;50.956;6.918;2023-04-03T04:16:18;102413.41;;;0.96;75.87
49473;BME280;67434;50.956;6.918;2023-04-03T04:19:05;102416.06;;;0.96;75.44
49473;BME280;67434;50.956;6.918;2023-04-03T04:21:51;102418.50;;;0.89;75.62
49473;BME280;67434;50.956;6.918;2023-04-03T04:24:36;102418.75;;;0.78;76.33
49473;BME280;67434;50.956;6.918;2023-04-03T04:27:22;102422.13;;;0.71;76.66
49473;BME280;67434;50.956;6.918;2023-04-03T04:30:08;102420.84;;;0.57;77.80
49473;BME280;67434;50.956;6.918;2023-04-03T04:32:54;102418.09;;;0.49;77.93
49473;BME280;67434;50.956;6.918;2023-04-03T04:35:41;102422.97;;;0.71;76.67
49473;BME280;67434;50.956;6.918;2023-04-03T04:38:27;102430.13;;;0.71;76.45
49473;BME280;67434;50.956;6.918;2023-04-03T04:41:13;102427.75;;;0.68;76.63
49473;BME280;67434;50.956;6.918;2023-04-03T04:43:58;102432.13;;;0.86;75.43
49473;BME280;67434;50.956;6.918;2023-04-03T04:46:44;102430.38;;;0.77;75.82
49473;BME280;67434;50.956;6.918;2023-04-03T04:49:30;102435.41;;;0.80;75.98
49473;BME280;67434;50.956;6.918;2023-04-03T04:52:15;102443.19;;;0.64;76.82
49473;BME280;67434;50.956;6.918;2023-04-03T04:55:01;102444.41;;;0.70;76.47
49473;BME280;67434;50.956;6.918;2023-04-03T04:57:47;102443.41;;;0.71;76.18
49473;BME280;67434;50.956;6.918;2023-04-03T05:00:32;102452.53;;;0.50;77.11
49473;BME280;67434;50.956;6.918;2023-04-03T05:03:18;102440.59;;;0.54;76.88
49473;BME280;67434;50.956;6.918;2023-04-03T05:06:04;102457.69;;;0.52;77.03
49473;BME280;67434;50.956;6.918;2023-04-03T05:08:50;102450.25;;;0.55;76.94
49473;BME280;67434;50.956;6.918;2023-04-03T05:11:35;102452.63;;;0.58;76.85
49473;BME280;67434;50.956;6.918;2023-04-03T05:14:21;102455.19;;;0.50;76.98
49473;BME280;67434;50.956;6.918;2023-04-03T05:17:07;102462.22;;;0.69;76.16
49473;BME280;67434;50.956;6.918;2023-04-03T05:19:52;102465.69;;;0.70;75.92
49473;BME280;67434;50.956;6.918;2023-04-03T05:22:38;102465.84;;;0.68;76.19
49473;BME280;67434;50.956;6.918;2023-04-03T05:25:24;102468.06;;;0.73;75.95
49473;BME280;67434;50.956;6.918;2023-04-03T05:28:10;102475.66;;;0.68;76.49
49473;BME280;67434;50.956;6.918;2023-04-03T05:30:57;102479.84;;;0.70;76.19
49473;BME280;67434;50.956;6.918;2023-04-03T05:33:43;102472.97;;;0.77;75.98
49473;BME280;67434;50.956;6.918;2023-04-03T05:36:28;102476.84;;;1.01;75.05
49473;BME280;67434;50.956;6.918;2023-04-03T05:39:14;102473.28;;;0.92;75.33
49473;BME280;67434;50.956;6.918;2023-04-03T05:42:00;102482.25;;;0.91;75.12
49473;BME280;67434;50.956;6.918;2023-04-03T05:44:45;102487.34;;;1.02;74.83
49473;BME280;67434;50.956;6.918;2023-04-03T05:47:32;102492.38;;;1.05;74.84
49473;BME280;67434;50.956;6.918;2023-04-03T05:50:18;102489.66;;;1.15;74.63
49473;BME280;67434;50.956;6.918;2023-04-03T05:53:04;102492.00;;;1.36;74.19
49473;BME280;67434;50.956;6.918;2023-04-03T05:55:50;102491.91;;;1.45;73.36
49473;BME280;67434;50.956;6.918;2023-04-03T05:58:36;102498.22;;;1.62;71.90
49473;BME280;67434;50.956;6.918;2023-04-03T06:01:21;102491.91;;;1.63;71.67
49473;BME280;67434;50.956;6.918;2023-04-03T06:04:07;102506.84;;;1.56;72.51
49473;BME280;67434;50.956;6.918;2023-04-03T06:06:57;102509.56;;;1.64;72.43
49473;BME280;67434;50.956;6.918;2023-04-03T06:09:45;102501.00;;;1.78;71.69
49473;BME280;67434;50.956;6.918;2023-04-03T06:12:31;102513.09;;;1.91;71.17
49473;BME280;67434;50.956;6.918;2023-04-03T06:15:17;102508.44;;;1.93;70.99
49473;BME280;67434;50.956;6.918;2023-04-03T06:18:03;102510.69;;;2.05;70.92
49473;BME280;67434;50.956;6.918;2023-04-03T06:20:48;102511.38;;;2.07;70.74
49473;BME280;67434;50.956;6.918;2023-04-03T06:23:34;102515.91;;;2.15;69.85
49473;BME280;67434;50.956;6.918;2023-04-03T06:26:20;102523.44;;;2.19;69.77
49473;BME280;67434;50.956;6.918;2023-04-03T06:29:06;102512.75;;;2.19;68.78
49473;BME280;67434;50.956;6.918;2023-04-03T06:31:53;102524.59;;;2.17;69.61
49473;BME280;67434;50.956;6.918;2023-04-03T06:34:38;102522.28;;;2.22;69.17
49473;BME280;67434;50.956;6.918;2023-04-03T06:37:24;102520.53;;;2.31;69.18
49473;BME280;67434;50.956;6.918;2023-04-03T06:40:18;102518.41;;;2.42;68.28
49473;BME280;67434;50.956;6.918;2023-04-03T06:43:04;102516.72;;;2.41;68.41
49473;BME280;67434;50.956;6.918;2023-04-03T06:45:50;102515.75;;;2.50;67.31
49473;BME280;67434;50.956;6.918;2023-04-03T06:48:36;102523.03;;;2.66;67.58
49473;BME280;67434;50.956;6.918;2023-04-03T06:51:26;102518.34;;;2.68;67.23
49473;BME280;67434;50.956;6.918;2023-04-03T06:54:12;102515.91;;;2.83;66.63
49473;BME280;67434;50.956;6.918;2023-04-03T06:57:00;102514.06;;;2.83;66.61
49473;BME280;67434;50.956;6.918;2023-04-03T06:59:46;102513.56;;;2.88;66.64
49473;BME280;67434;50.956;6.918;2023-04-03T07:02:31;102518.91;;;2.88;66.28
49473;BME280;67434;50.956;6.918;2023-04-03T07:05:17;102513.75;;;2.95;65.88
49473;BME280;67434;50.956;6.918;2023-04-03T07:08:03;102516.81;;;3.08;65.72
49473;BME280;67434;50.956;6.918;2023-04-03T07:10:49;102517.66;;;3.33;65.39
49473;BME280;67434;50.956;6.918;2023-04-03T07:13:35;102521.69;;;3.37;63.81
49473;BME280;67434;50.956;6.918;2023-04-03T07:16:21;102520.03;;;3.36;63.13
49473;BME280;67434;50.956;6.918;2023-04-03T07:19:07;102524.53;;;3.43;62.11
49473;BME280;67434;50.956;6.918;2023-04-03T07:21:54;102519.19;;;3.52;62.34
49473;BME280;67434;50.956;6.918;2023-04-03T07:24:40;102519.19;;;3.60;61.08
49473;BME280;67434;50.956;6.918;2023-04-03T07:27:25;102529.72;;;3.61;61.83
49473;BME280;67434;50.956;6.918;2023-04-03T07:30:11;102527.22;;;3.68;61.29
49473;BME280;67434;50.956;6.918;2023-04-03T07:32:59;102540.41;;;3.69;60.68
49473;BME280;67434;50.956;6.918;2023-04-03T07:35:45;102529.22;;;3.82;60.36
49473;BME280;67434;50.956;6.918;2023-04-03T07:38:33;102542.94;;;3.87;59.92
49473;BME280;67434;50.956;6.918;2023-04-03T07:41:19;102543.75;;;3.88;59.80
49473;BME280;67434;50.956;6.918;2023-04-03T07:44:07;102537.75;;;3.86;59.45
49473;BME280;67434;50.956;6.918;2023-04-03T07:46:55;102545.94;;;3.92;59.98
49473;BME280;67434;50.956;6.918;2023-04-03T07:49:41;102535.91;;;3.94;59.92
49473;BME280;67434;50.956;6.918;2023-04-03T07:52:27;102540.41;;;4.02;59.68
49473;BME280;67434;50.956;6.918;2023-04-03T07:55:12;102551.13;;;4.10;59.08
49473;BME280;67434;50.956;6.918;2023-04-03T07:57:58;102545.75;;;4.10;58.21
49473;BME280;67434;50.956;6.918;2023-04-03T08:00:44;102545.25;;;4.15;59.25
49473;BME280;67434;50.956;6.918;2023-04-03T08:03:29;102547.06;;;4.22;57.88
49473;BME280;67434;50.956;6.918;2023-04-03T08:06:15;102550.38;;;4.32;58.34
49473;BME280;67434;50.956;6.918;2023-04-03T08:09:02;102545.50;;;4.36;58.11
49473;BME280;67434;50.956;6.918;2023-04-03T08:11:49;102535.78;;;4.43;58.22
49473;BME280;67434;50.956;6.918;2023-04-03T08:14:38;102542.97;;;4.51;57.02
49473;BME280;67434;50.956;6.918;2023-04-03T08:17:24;102541.28;;;4.58;57.12
49473;BME280;67434;50.956;6.918;2023-04-03T08:20:10;102545.44;;;4.60;56.72
49473;BME280;67434;50.956;6.918;2023-04-03T08:22:55;102544.75;;;4.66;57.34
49473;BME280;67434;50.956;6.918;2023-04-03T08:25:41;102540.00;;;4.77;56.76
49473;BME280;67434;50.956;6.918;2023-04-03T08:28:27;102547.22;;;4.84;56.07
49473;BME280;67434;50.956;6.918;2023-04-03T08:31:16;102539.97;;;4.93;55.76
49473;BME280;67434;50.956;6.918;2023-04-03T08:34:02;102545.75;;;5.05;55.16
49473;BME280;67434;50.956;6.918;2023-04-03T08:36:48;102549.03;;;5.15;54.70
49473;BME280;67434;50.956;6.918;2023-04-03T08:39:33;102552.53;;;5.23;53.97
49473;BME280;67434;50.956;6.918;2023-04-03T08:45:45;102548.47;;;5.27;53.91
49473;BME280;67434;50.956;6.918;2023-04-03T08:48:36;102552.22;;;5.41;52.83
49473;BME280;67434;50.956;6.918;2023-04-03T08:51:25;102545.13;;;5.48;51.89
49473;BME280;67434;50.956;6.918;2023-04-03T08:54:21;102556.41;;;5.67;53.08
49473;BME280;67434;50.956;6.918;2023-04-03T08:57:11;102554.59;;;5.82;52.79
49473;BME280;67434;50.956;6.918;2023-04-03T09:00:00;102545.13;;;5.94;52.12
49473;BME280;67434;50.956;6.918;2023-04-03T09:02:52;102550.53;;;6.09;51.67
49473;BME280;67434;50.956;6.918;2023-04-03T09:08:39;102544.72;;;6.20;49.24
49473;BME280;67434;50.956;6.918;2023-04-03T09:11:57;102541.56;;;6.31;48.15
49473;BME280;67434;50.956;6.918;2023-04-03T09:15:19;102549.81;;;6.30;46.26
49473;BME280;67434;50.956;6.918;2023-04-03T09:18:16;102553.13;;;6.32;45.79
49473;BME280;67434;50.956;6.918;2023-04-03T09:21:22;102547.63;;;6.33;46.75
49473;BME280;67434;50.956;6.918;2023-04-03T09:24:13;102556.41;;;6.42;46.29
49473;BME280;67434;50.956;6.918;2023-04-03T09:27:05;102554.84;;;6.47;46.35
49473;BME280;67434;50.956;6.918;2023-04-03T09:29:54;102554.28;;;6.52;46.67
49473;BME280;67434;50.956;6.918;2023-04-03T09:32:41;102554.84;;;6.47;46.56
49473;BME280;67434;50.956;6.918;2023-04-03T09:35:33;102550.75;;;6.51;45.31
49473;BME280;67434;50.956;6.918;2023-04-03T09:38:21;102546.47;;;6.57;46.35
49473;BME280;67434;50.956;6.918;2023-04-03T09:41:15;102546.09;;;6.60;45.67
49473;BME280;67434;50.956;6.918;2023-04-03T09:44:01;102539.72;;;6.61;46.54
49473;BME280;67434;50.956;6.918;2023-04-03T09:46:46;102543.88;;;6.78;45.15
49473;BME280;67434;50.956;6.918;2023-04-03T09:49:32;102538.97;;;6.82;44.10
49473;BME280;67434;50.956;6.918;2023-04-03T09:52:25;102539.88;;;6.89;43.20
49473;BME280;67434;50.956;6.918;2023-04-03T09:58:02;102528.88;;;7.05;39.28
49473;BME280;67434;50.956;6.918;2023-04-03T10:00:58;102526.94;;;7.14;39.89
49473;BME280;67434;50.956;6.918;2023-04-03T10:03:44;102540.97;;;7.31;40.26
49473;BME280;67434;50.956;6.918;2023-04-03T10:06:31;102537.06;;;7.33;37.72
49473;BME280;67434;50.956;6.918;2023-04-03T10:12:19;102537.19;;;7.25;37.41
49473;BME280;67434;50.956;6.918;2023-04-03T10:15:15;102531.69;;;7.33;35.89
49473;BME280;67434;50.956;6.918;2023-04-03T10:18:07;102528.59;;;7.36;35.65
49473;BME280;67434;50.956;6.918;2023-04-03T10:21:06;102526.91;;;7.50;35.38
49473;BME280;67434;50.956;6.918;2023-04-03T10:24:03;102517.66;;;7.59;34.89
49473;BME280;67434;50.956;6.918;2023-04-03T10:30:26;102518.41;;;7.74;35.09
49473;BME280;67434;50.956;6.918;2023-04-03T10:33:31;102515.66;;;7.89;34.62
49473;BME280;67434;50.956;6.918;2023-04-03T10:36:35;102519.94;;;7.83;34.34
49473;BME280;67434;50.956;6.918;2023-04-03T10:39:36;102511.72;;;7.92;34.43
49473;BME280;67434;50.956;6.918;2023-04-03T10:42:49;102507.81;;;7.94;34.43
49473;BME280;67434;50.956;6.918;2023-04-03T10:45:57;102497.88;;;7.95;34.37
49473;BME280;67434;50.956;6.918;2023-04-03T10:52:37;102496.53;;;8.12;34.70
49473;BME280;67434;50.956;6.918;2023-04-03T10:58:18;102481.16;;;8.34;34.42
49473;BME280;67434;50.956;6.918;2023-04-03T11:01:09;102487.31;;;8.28;34.13
49473;BME280;67434;50.956;6.918;2023-04-03T11:03:58;102483.00;;;8.33;34.37
49473;BME280;67434;50.956;6.918;2023-04-03T11:06:51;102489.09;;;8.49;34.11
49473;BME280;67434;50.956;6.918;2023-04-03T11:09:44;102479.28;;;8.34;33.79
49473;BME280;67434;50.956;6.918;2023-04-03T11:12:43;102485.75;;;8.40;33.49
49473;BME280;67434;50.956;6.918;2023-04-03T11:15:32;102483.03;;;8.40;33.86
49473;BME280;67434;50.956;6.918;2023-04-03T11:18:26;102479.84;;;8.30;34.02
49473;BME280;67434;50.956;6.918;2023-04-03T11:21:20;102470.19;;;8.35;34.64
49473;BME280;67434;50.956;6.918;2023-04-03T11:24:17;102470.13;;;8.29;33.27
49473;BME280;67434;50.956;6.918;2023-04-03T11:27:15;102469.53;;;8.33;33.08
49473;BME280;67434;50.956;6.918;2023-04-03T11:30:06;102463.78;;;8.43;34.04
49473;BME280;67434;50.956;6.918;2023-04-03T11:33:21;102463.03;;;8.62;33.32
49473;BME280;67434;50.956;6.918;2023-04-03T11:36:12;102460.59;;;8.33;32.64
49473;BME280;67434;50.956;6.918;2023-04-03T11:39:15;102467.94;;;8.45;33.92
49473;BME280;67434;50.956;6.918;2023-04-03T11:54:36;102429.88;;;8.62;33.70
49473;BME280;67434;50.956;6.918;2023-04-03T11:58:04;102416.63;;;8.80;34.08
49473;BME280;67434;50.956;6.918;2023-04-03T12:00:56;102427.88;;;8.97;33.50
49473;BME280;67434;50.956;6.918;2023-04-03T12:12:31;102416.91;;;9.12;32.74
49473;BME280;67434;50.956;6.918;2023-04-03T12:15:47;102416.06;;;9.24;31.53
49473;BME280;67434;50.956;6.918;2023-04-03T12:29:50;102400.25;;;8.75;31.39
49473;BME280;67434;50.956;6.918;2023-04-03T12:35:44;102401.91;;;8.83;32.69
49473;BME280;67434;50.956;6.918;2023-04-03T12:39:01;102399.81;;;8.71;32.61
49473;BME280;67434;50.956;6.918;2023-04-03T12:44:58;102394.44;;;8.71;33.50
49473;BME280;67434;50.956;6.918;2023-04-03T12:47:49;102389.66;;;8.67;34.10
49473;BME280;67434;50.956;6.918;2023-04-03T12:50:36;102388.84;;;8.80;34.04
49473;BME280;67434;50.956;6.918;2023-04-03T12:53:25;102383.88;;;8.90;34.28
49473;BME280;67434;50.956;6.918;2023-04-03T12:56:30;102388.25;;;9.04;33.42
49473;BME280;67434;50.956;6.918;2023-04-03T12:59:24;102376.03;;;9.08;32.80
49473;BME280;67434;50.956;6.918;2023-04-03T13:05:16;102386.22;;;9.32;31.76
49473;BME280;67434;50.956;6.918;2023-04-03T13:08:05;102382.25;;;9.22;31.04
49473;BME280;67434;50.956;6.918;2023-04-03T13:11:03;102380.59;;;9.01;30.53
49473;BME280;67434;50.956;6.918;2023-04-03T13:13:56;102371.84;;;8.86;31.44
49473;BME280;67434;50.956;6.918;2023-04-03T13:16:42;102379.97;;;8.99;31.69
49473;BME280;67434;50.956;6.918;2023-04-03T13:19:38;102367.31;;;9.06;31.25
49473;BME280;67434;50.956;6.918;2023-04-03T13:22:36;102364.81;;;9.04;31.45
49473;BME280;67434;50.956;6.918;2023-04-03T13:25:31;102359.41;;;9.18;31.16
49473;BME280;67434;50.956;6.918;2023-04-03T13:28:22;102358.59;;;9.30;30.76
49473;BME280;67434;50.956;6.918;2023-04-03T13:34:09;102350.28;;;9.25;30.83
49473;BME280;67434;50.956;6.918;2023-04-03T13:36:59;102346.75;;;9.18;31.15
49473;BME280;67434;50.956;6.918;2023-04-03T13:39:45;102348.41;;;9.19;31.26
49473;BME280;67434;50.956;6.918;2023-04-03T13:42:33;102344.88;;;9.25;31.43
49473;BME280;67434;50.956;6.918;2023-04-03T13:45:25;102343.25;;;9.31;31.96
49473;BME280;67434;50.956;6.918;2023-04-03T13:48:18;102339.91;;;9.35;32.03
49473;BME280;67434;50.956;6.918;2023-04-03T13:51:28;102337.00;;;9.44;31.52
49473;BME280;67434;50.956;6.918;2023-04-03T13:54:34;102327.84;;;9.45;32.30
49473;BME280;67434;50.956;6.918;2023-04-03T13:57:21;102336.75;;;9.52;31.68
49473;BME280;67434;50.956;6.918;2023-04-03T14:00:27;102338.19;;;9.67;32.85
49473;BME280;67434;50.956;6.918;2023-04-03T14:03:21;102318.88;;;9.57;32.09
49473;BME280;67434;50.956;6.918;2023-04-03T14:06:10;102329.50;;;9.46;30.98
49473;BME280;67434;50.956;6.918;2023-04-03T14:08:56;102325.16;;;9.45;32.28
49473;BME280;67434;50.956;6.918;2023-04-03T14:11:42;102318.47;;;9.54;32.38
49473;BME280;67434;50.956;6.918;2023-04-03T14:14:31;102316.78;;;9.66;32.21
49473;BME280;67434;50.956;6.918;2023-04-03T14:17:21;102301.19;;;9.75;32.91
49473;BME280;67434;50.956;6.918;2023-04-03T14:23:00;102301.13;;;9.88;32.55
49473;BME280;67434;50.956;6.918;2023-04-03T14:25:45;102289.50;;;9.87;33.38
49473;BME280;67434;50.956;6.918;2023-04-03T14:28:31;102301.72;;;9.96;34.14
49473;BME280;67434;50.956;6.918;2023-04-03T14:31:18;102299.84;;;10.03;34.27
49473;BME280;67434;50.956;6.918;2023-04-03T14:34:04;102294.88;;;9.94;33.21
49473;BME280;67434;50.956;6.918;2023-04-03T14:36:50;102299.22;;;9.95;33.42
49473;BME280;67434;50.956;6.918;2023-04-03T14:39:37;102287.72;;;9.68;33.84
49473;BME280;67434;50.956;6.918;2023-04-03T14:42:27;102282.16;;;9.50;34.01
49473;BME280;67434;50.956;6.918;2023-04-03T14:45:15;102277.56;;;9.57;34.69
49473;BME280;67434;50.956;6.918;2023-04-03T14:48:02;102281.25;;;9.76;34.02
49473;BME280;67434;50.956;6.918;2023-04-03T14:50:50;102282.25;;;9.81;34.00
49473;BME280;67434;50.956;6.918;2023-04-03T14:53:36;102294.72;;;9.82;33.47
49473;BME280;67434;50.956;6.918;2023-04-03T14:56:25;102278.34;;;9.77;32.95
49473;BME280;67434;50.956;6.918;2023-04-03T14:59:13;102276.91;;;9.75;34.01
49473;BME280;67434;50.956;6.918;2023-04-03T15:01:59;102273.94;;;9.83;33.24
49473;BME280;67434;50.956;6.918;2023-04-03T15:04:45;102274.81;;;9.77;32.81
49473;BME280;67434;50.956;6.918;2023-04-03T15:07:39;102274.78;;;9.83;32.95
49473;BME280;67434;50.956;6.918;2023-04-03T15:10:28;102277.41;;;9.96;32.49
49473;BME280;67434;50.956;6.918;2023-04-03T15:13:14;102264.28;;;10.00;32.81
49473;BME280;67434;50.956;6.918;2023-04-03T15:16:00;102262.84;;;9.97;32.38
49473;BME280;67434;50.956;6.918;2023-04-03T15:18:47;102269.47;;;10.01;32.26
49473;BME280;67434;50.956;6.918;2023-04-03T15:21:32;102275.53;;;9.97;32.59
49473;BME280;67434;50.956;6.918;2023-04-03T15:24:18;102270.53;;;10.00;32.75
49473;BME280;67434;50.956;6.918;2023-04-03T15:27:03;102268.91;;;9.93;33.10
49473;BME280;67434;50.956;6.918;2023-04-03T15:29:49;102262.47;;;9.94;33.75
49473;BME280;67434;50.956;6.918;2023-04-03T15:32:35;102267.44;;;9.97;33.15
49473;BME280;67434;50.956;6.918;2023-04-03T15:35:21;102267.00;;;10.07;33.37
49473;BME280;67434;50.956;6.918;2023-04-03T15:38:07;102274.09;;;9.94;34.16
49473;BME280;67434;50.956;6.918;2023-04-03T15:40:54;102261.59;;;10.00;33.55
49473;BME280;67434;50.956;6.918;2023-04-03T15:43:40;102268.44;;;10.02;32.09
49473;BME280;67434;50.956;6.918;2023-04-03T15:46:26;102275.31;;;10.05;32.29
49473;BME280;67434;50.956;6.918;2023-04-03T15:49:12;102272.78;;;10.10;32.15
49473;BME280;67434;50.956;6.918;2023-04-03T15:51:58;102272.78;;;10.10;31.87
49473;BME280;67434;50.956;6.918;2023-04-03T15:54:44;102268.81;;;10.13;31.01
49473;BME280;67434;50.956;6.918;2023-04-03T15:57:29;102270.25;;;10.22;32.09
49473;BME280;67434;50.956;6.918;2023-04-03T16:00:16;102269.44;;;10.15;31.91
49473;BME280;67434;50.956;6.918;2023-04-03T16:03:06;102266.13;;;10.13;32.14
49473;BME280;67434;50.956;6.918;2023-04-03T16:05:53;102268.22;;;10.11;33.12